Terminal Aerodrome Forecast
Issued by NWS Boise, ID

Home | Current Version | Previous Version | Text Only | Print | Product List | Glossary On
Versions: 1 2 3 4 5 6 7 8 9 10 11 12 13 14 15 16 17 18 19 20 21 22 23 24 25 26 27 28 29 30 31 32 33 34 35
000
FTUS45 KBOI 170520
TAFBOI
TAF
KBOI 170520Z 1706/1806 13007KT P6SM BKN200
     FM171500 VRB05KT P6SM FEW080 BKN200
     FM172200 08006KT P6SM FEW080 BKN200
     FM180200 14004KT P6SM SCT080 BKN200=

USA.gov is the U.S. government's official web portal to all federal, state and local government web resources and services.